sensor_id;sensor_type;location;lat;lon;timestamp;P1;durP1;ratioP1;P2;durP2;ratioP2
59872;SDS011;50750;51.636;4.948;2023-03-01T00:01:21;5.80;;;3.70;;
59872;SDS011;50750;51.636;4.948;2023-03-01T00:03:50;5.80;;;3.60;;
59872;SDS011;50750;51.636;4.948;2023-03-01T00:06:17;5.00;;;3.40;;
59872;SDS011;50750;51.636;4.948;2023-03-01T00:08:45;6.00;;;3.30;;
59872;SDS011;50750;51.636;4.948;2023-03-01T00:11:13;5.10;;;3.70;;
59872;SDS011;50750;51.636;4.948;2023-03-01T00:13:43;6.00;;;3.40;;
59872;SDS011;50750;51.636;4.948;2023-03-01T00:16:13;5.50;;;3.60;;
59872;SDS011;50750;51.636;4.948;2023-03-01T00:18:42;5.60;;;3.80;;
59872;SDS011;50750;51.636;4.948;2023-03-01T00:21:08;6.90;;;3.70;;
59872;SDS011;50750;51.636;4.948;2023-03-01T00:23:35;6.00;;;3.30;;
59872;SDS011;50750;51.636;4.948;2023-03-01T00:26:05;5.60;;;3.40;;
59872;SDS011;50750;51.636;4.948;2023-03-01T00:28:33;4.10;;;3.00;;
59872;SDS011;50750;51.636;4.948;2023-03-01T00:31:07;4.50;;;3.40;;
59872;SDS011;50750;51.636;4.948;2023-03-01T00:33:38;5.50;;;3.50;;
59872;SDS011;50750;51.636;4.948;2023-03-01T00:36:05;6.80;;;3.80;;
59872;SDS011;50750;51.636;4.948;2023-03-01T00:38:39;5.30;;;3.40;;
59872;SDS011;50750;51.636;4.948;2023-03-01T00:41:09;5.80;;;3.60;;
59872;SDS011;50750;51.636;4.948;2023-03-01T00:43:37;5.30;;;3.60;;
59872;SDS011;50750;51.636;4.948;2023-03-01T00:46:11;5.50;;;3.80;;
59872;SDS011;50750;51.636;4.948;2023-03-01T00:48:40;5.00;;;3.50;;
59872;SDS011;50750;51.636;4.948;2023-03-01T00:51:08;5.50;;;3.50;;
59872;SDS011;50750;51.636;4.948;2023-03-01T00:56:04;5.30;;;3.40;;
59872;SDS011;50750;51.636;4.948;2023-03-01T00:58:32;5.30;;;3.50;;
59872;SDS011;50750;51.636;4.948;2023-03-01T01:00:59;5.40;;;3.60;;
59872;SDS011;50750;51.636;4.948;2023-03-01T01:03:26;4.60;;;3.30;;
59872;SDS011;50750;51.636;4.948;2023-03-01T01:05:53;6.20;;;3.60;;
59872;SDS011;50750;51.636;4.948;2023-03-01T01:08:20;6.00;;;3.40;;
59872;SDS011;50750;51.636;4.948;2023-03-01T01:10:47;5.80;;;3.80;;
59872;SDS011;50750;51.636;4.948;2023-03-01T01:13:14;4.60;;;3.40;;
59872;SDS011;50750;51.636;4.948;2023-03-01T01:15:40;6.20;;;3.90;;
59872;SDS011;50750;51.636;4.948;2023-03-01T01:18:07;5.70;;;3.90;;
59872;SDS011;50750;51.636;4.948;2023-03-01T01:20:34;5.30;;;3.20;;
59872;SDS011;50750;51.636;4.948;2023-03-01T01:23:04;4.80;;;3.50;;
59872;SDS011;50750;51.636;4.948;2023-03-01T01:25:33;5.10;;;3.80;;
59872;SDS011;50750;51.636;4.948;2023-03-01T01:28:01;6.60;;;3.80;;
59872;SDS011;50750;51.636;4.948;2023-03-01T01:30:29;6.40;;;4.00;;
59872;SDS011;50750;51.636;4.948;2023-03-01T01:32:55;4.70;;;3.20;;
59872;SDS011;50750;51.636;4.948;2023-03-01T01:35:22;4.60;;;3.20;;
59872;SDS011;50750;51.636;4.948;2023-03-01T01:37:48;5.80;;;3.60;;
59872;SDS011;50750;51.636;4.948;2023-03-01T01:40:14;6.10;;;3.80;;
59872;SDS011;50750;51.636;4.948;2023-03-01T01:42:41;5.20;;;3.30;;
59872;SDS011;50750;51.636;4.948;2023-03-01T01:48:06;4.60;;;3.30;;
59872;SDS011;50750;51.636;4.948;2023-03-01T01:50:39;6.30;;;3.60;;
59872;SDS011;50750;51.636;4.948;2023-03-01T01:53:10;5.20;;;3.60;;
59872;SDS011;50750;51.636;4.948;2023-03-01T01:55:42;6.80;;;3.50;;
59872;SDS011;50750;51.636;4.948;2023-03-01T01:58:12;5.60;;;3.40;;
59872;SDS011;50750;51.636;4.948;2023-03-01T02:00:43;6.20;;;3.60;;
59872;SDS011;50750;51.636;4.948;2023-03-01T02:03:14;4.50;;;3.30;;
59872;SDS011;50750;51.636;4.948;2023-03-01T02:05:47;5.50;;;3.50;;
59872;SDS011;50750;51.636;4.948;2023-03-01T02:08:16;5.30;;;3.40;;
59872;SDS011;50750;51.636;4.948;2023-03-01T02:10:45;4.50;;;3.00;;
59872;SDS011;50750;51.636;4.948;2023-03-01T02:13:14;6.10;;;4.00;;
59872;SDS011;50750;51.636;4.948;2023-03-01T02:15:41;5.40;;;3.50;;
59872;SDS011;50750;51.636;4.948;2023-03-01T02:18:10;5.70;;;3.70;;
59872;SDS011;50750;51.636;4.948;2023-03-01T02:23:30;5.20;;;3.30;;
59872;SDS011;50750;51.636;4.948;2023-03-01T02:28:40;4.90;;;3.40;;
59872;SDS011;50750;51.636;4.948;2023-03-01T02:31:09;6.50;;;3.30;;
59872;SDS011;50750;51.636;4.948;2023-03-01T02:33:57;5.30;;;3.60;;
59872;SDS011;50750;51.636;4.948;2023-03-01T02:36:25;5.70;;;3.60;;
59872;SDS011;50750;51.636;4.948;2023-03-01T02:38:58;5.00;;;3.60;;
59872;SDS011;50750;51.636;4.948;2023-03-01T02:41:28;6.40;;;3.70;;
59872;SDS011;50750;51.636;4.948;2023-03-01T02:43:58;5.00;;;3.40;;
59872;SDS011;50750;51.636;4.948;2023-03-01T02:46:25;7.10;;;4.10;;
59872;SDS011;50750;51.636;4.948;2023-03-01T02:48:53;5.40;;;3.60;;
59872;SDS011;50750;51.636;4.948;2023-03-01T02:54:07;6.90;;;4.00;;
59872;SDS011;50750;51.636;4.948;2023-03-01T02:56:49;6.60;;;3.70;;
59872;SDS011;50750;51.636;4.948;2023-03-01T02:59:18;5.50;;;3.60;;
59872;SDS011;50750;51.636;4.948;2023-03-01T03:04:14;6.80;;;3.60;;
59872;SDS011;50750;51.636;4.948;2023-03-01T03:06:44;5.70;;;3.70;;
59872;SDS011;50750;51.636;4.948;2023-03-01T03:09:12;6.90;;;3.90;;
59872;SDS011;50750;51.636;4.948;2023-03-01T03:11:40;6.20;;;3.90;;
59872;SDS011;50750;51.636;4.948;2023-03-01T03:14:09;5.70;;;3.50;;
59872;SDS011;50750;51.636;4.948;2023-03-01T03:19:06;5.70;;;3.90;;
59872;SDS011;50750;51.636;4.948;2023-03-01T03:21:33;6.60;;;3.60;;
59872;SDS011;50750;51.636;4.948;2023-03-01T03:24:00;6.40;;;3.80;;
59872;SDS011;50750;51.636;4.948;2023-03-01T03:26:27;7.20;;;3.80;;
59872;SDS011;50750;51.636;4.948;2023-03-01T03:28:53;5.70;;;3.70;;
59872;SDS011;50750;51.636;4.948;2023-03-01T03:31:20;5.70;;;3.40;;
59872;SDS011;50750;51.636;4.948;2023-03-01T03:33:46;6.10;;;3.80;;
59872;SDS011;50750;51.636;4.948;2023-03-01T03:36:17;6.20;;;3.70;;
59872;SDS011;50750;51.636;4.948;2023-03-01T03:38:45;6.20;;;4.00;;
59872;SDS011;50750;51.636;4.948;2023-03-01T03:41:12;5.30;;;3.50;;
59872;SDS011;50750;51.636;4.948;2023-03-01T03:43:40;6.00;;;3.80;;
59872;SDS011;50750;51.636;4.948;2023-03-01T03:46:09;6.90;;;3.80;;
59872;SDS011;50750;51.636;4.948;2023-03-01T03:48:39;5.00;;;3.50;;
59872;SDS011;50750;51.636;4.948;2023-03-01T03:51:09;5.90;;;3.40;;
59872;SDS011;50750;51.636;4.948;2023-03-01T03:53:40;4.60;;;3.60;;
59872;SDS011;50750;51.636;4.948;2023-03-01T03:56:07;5.30;;;3.40;;
59872;SDS011;50750;51.636;4.948;2023-03-01T03:58:34;6.10;;;3.50;;
59872;SDS011;50750;51.636;4.948;2023-03-01T04:01:01;6.50;;;3.80;;
59872;SDS011;50750;51.636;4.948;2023-03-01T04:03:29;6.70;;;3.90;;
59872;SDS011;50750;51.636;4.948;2023-03-01T04:05:58;6.00;;;3.60;;
59872;SDS011;50750;51.636;4.948;2023-03-01T04:08:26;6.80;;;3.90;;
59872;SDS011;50750;51.636;4.948;2023-03-01T04:10:56;6.00;;;3.60;;
59872;SDS011;50750;51.636;4.948;2023-03-01T04:13:26;5.80;;;3.30;;
59872;SDS011;50750;51.636;4.948;2023-03-01T04:15:53;5.00;;;3.30;;
59872;SDS011;50750;51.636;4.948;2023-03-01T04:18:21;5.50;;;3.40;;
59872;SDS011;50750;51.636;4.948;2023-03-01T04:23:21;5.30;;;3.10;;
59872;SDS011;50750;51.636;4.948;2023-03-01T04:25:52;5.50;;;3.50;;
59872;SDS011;50750;51.636;4.948;2023-03-01T04:28:25;4.80;;;3.10;;
59872;SDS011;50750;51.636;4.948;2023-03-01T04:30:54;6.60;;;3.40;;
59872;SDS011;50750;51.636;4.948;2023-03-01T04:33:22;6.30;;;3.40;;
59872;SDS011;50750;51.636;4.948;2023-03-01T04:35:49;5.20;;;3.30;;
59872;SDS011;50750;51.636;4.948;2023-03-01T04:38:17;6.10;;;3.60;;
59872;SDS011;50750;51.636;4.948;2023-03-01T04:40:44;5.20;;;3.30;;
59872;SDS011;50750;51.636;4.948;2023-03-01T04:43:12;6.40;;;3.80;;
59872;SDS011;50750;51.636;4.948;2023-03-01T04:45:42;4.90;;;3.30;;
59872;SDS011;50750;51.636;4.948;2023-03-01T04:48:08;4.50;;;3.10;;
59872;SDS011;50750;51.636;4.948;2023-03-01T04:50:35;5.30;;;3.50;;
59872;SDS011;50750;51.636;4.948;2023-03-01T04:53:02;5.60;;;3.40;;
59872;SDS011;50750;51.636;4.948;2023-03-01T04:55:29;5.60;;;4.10;;
59872;SDS011;50750;51.636;4.948;2023-03-01T04:57:56;6.00;;;3.60;;
59872;SDS011;50750;51.636;4.948;2023-03-01T05:00:22;5.10;;;3.10;;
59872;SDS011;50750;51.636;4.948;2023-03-01T05:02:51;5.10;;;3.40;;
59872;SDS011;50750;51.636;4.948;2023-03-01T05:07:58;5.30;;;3.60;;
59872;SDS011;50750;51.636;4.948;2023-03-01T05:10:26;5.10;;;3.50;;
59872;SDS011;50750;51.636;4.948;2023-03-01T05:12:55;4.80;;;3.50;;
59872;SDS011;50750;51.636;4.948;2023-03-01T05:15:26;6.00;;;3.60;;
59872;SDS011;50750;51.636;4.948;2023-03-01T05:17:54;6.20;;;3.40;;
59872;SDS011;50750;51.636;4.948;2023-03-01T05:20:24;5.30;;;3.40;;
59872;SDS011;50750;51.636;4.948;2023-03-01T05:22:53;5.30;;;3.30;;
59872;SDS011;50750;51.636;4.948;2023-03-01T05:25:22;4.90;;;3.40;;
59872;SDS011;50750;51.636;4.948;2023-03-01T05:27:48;5.90;;;3.30;;
59872;SDS011;50750;51.636;4.948;2023-03-01T05:30:15;4.90;;;3.20;;
59872;SDS011;50750;51.636;4.948;2023-03-01T05:32:44;5.00;;;3.30;;
59872;SDS011;50750;51.636;4.948;2023-03-01T05:35:13;5.30;;;3.50;;
59872;SDS011;50750;51.636;4.948;2023-03-01T05:37:45;5.90;;;3.90;;
59872;SDS011;50750;51.636;4.948;2023-03-01T05:40:20;4.80;;;3.40;;
59872;SDS011;50750;51.636;4.948;2023-03-01T05:42:52;4.80;;;3.10;;
59872;SDS011;50750;51.636;4.948;2023-03-01T05:45:23;5.50;;;3.60;;
59872;SDS011;50750;51.636;4.948;2023-03-01T05:47:51;5.30;;;3.40;;
59872;SDS011;50750;51.636;4.948;2023-03-01T05:50:22;4.80;;;3.30;;
59872;SDS011;50750;51.636;4.948;2023-03-01T05:52:52;4.50;;;3.20;;
59872;SDS011;50750;51.636;4.948;2023-03-01T05:55:24;4.70;;;3.30;;
59872;SDS011;50750;51.636;4.948;2023-03-01T05:57:51;5.20;;;3.20;;
59872;SDS011;50750;51.636;4.948;2023-03-01T06:00:19;5.90;;;3.60;;
59872;SDS011;50750;51.636;4.948;2023-03-01T06:02:48;5.00;;;3.30;;
59872;SDS011;50750;51.636;4.948;2023-03-01T06:05:16;5.90;;;3.80;;
59872;SDS011;50750;51.636;4.948;2023-03-01T06:07:42;5.10;;;3.30;;
59872;SDS011;50750;51.636;4.948;2023-03-01T06:10:10;5.10;;;3.60;;
59872;SDS011;50750;51.636;4.948;2023-03-01T06:12:39;5.20;;;3.40;;
59872;SDS011;50750;51.636;4.948;2023-03-01T06:15:06;4.90;;;3.60;;
59872;SDS011;50750;51.636;4.948;2023-03-01T06:17:36;5.30;;;3.40;;
59872;SDS011;50750;51.636;4.948;2023-03-01T06:20:05;4.90;;;3.20;;
59872;SDS011;50750;51.636;4.948;2023-03-01T06:22:34;5.20;;;3.50;;
59872;SDS011;50750;51.636;4.948;2023-03-01T06:25:01;4.90;;;3.10;;
59872;SDS011;50750;51.636;4.948;2023-03-01T06:27:28;4.50;;;3.30;;
59872;SDS011;50750;51.636;4.948;2023-03-01T06:29:54;5.30;;;3.70;;
59872;SDS011;50750;51.636;4.948;2023-03-01T06:32:21;5.30;;;3.40;;
59872;SDS011;50750;51.636;4.948;2023-03-01T06:34:47;4.80;;;3.60;;
59872;SDS011;50750;51.636;4.948;2023-03-01T06:37:14;5.50;;;3.70;;
59872;SDS011;50750;51.636;4.948;2023-03-01T06:39:40;4.80;;;3.40;;
59872;SDS011;50750;51.636;4.948;2023-03-01T06:42:07;5.30;;;3.70;;
59872;SDS011;50750;51.636;4.948;2023-03-01T06:44:36;5.10;;;3.50;;
59872;SDS011;50750;51.636;4.948;2023-03-01T06:47:03;5.90;;;3.50;;
59872;SDS011;50750;51.636;4.948;2023-03-01T06:49:30;4.80;;;3.20;;
59872;SDS011;50750;51.636;4.948;2023-03-01T06:51:57;4.70;;;3.30;;
59872;SDS011;50750;51.636;4.948;2023-03-01T06:54:23;8.80;;;5.60;;
59872;SDS011;50750;51.636;4.948;2023-03-01T06:56:50;9.50;;;5.20;;
59872;SDS011;50750;51.636;4.948;2023-03-01T06:59:17;7.50;;;4.70;;
59872;SDS011;50750;51.636;4.948;2023-03-01T07:01:44;8.10;;;4.80;;
59872;SDS011;50750;51.636;4.948;2023-03-01T07:04:10;7.10;;;4.80;;
59872;SDS011;50750;51.636;4.948;2023-03-01T07:06:38;7.20;;;4.90;;
59872;SDS011;50750;51.636;4.948;2023-03-01T07:09:05;8.20;;;4.70;;
59872;SDS011;50750;51.636;4.948;2023-03-01T07:11:32;7.30;;;4.90;;
59872;SDS011;50750;51.636;4.948;2023-03-01T07:13:59;7.50;;;4.80;;
59872;SDS011;50750;51.636;4.948;2023-03-01T07:16:26;8.10;;;4.40;;
59872;SDS011;50750;51.636;4.948;2023-03-01T07:18:53;6.50;;;4.60;;
59872;SDS011;50750;51.636;4.948;2023-03-01T07:21:20;8.20;;;4.90;;
59872;SDS011;50750;51.636;4.948;2023-03-01T07:23:47;7.00;;;4.60;;
59872;SDS011;50750;51.636;4.948;2023-03-01T07:26:15;5.80;;;4.30;;
59872;SDS011;50750;51.636;4.948;2023-03-01T07:28:41;6.10;;;4.80;;
59872;SDS011;50750;51.636;4.948;2023-03-01T07:31:08;6.20;;;4.50;;
59872;SDS011;50750;51.636;4.948;2023-03-01T07:33:34;6.70;;;4.20;;
59872;SDS011;50750;51.636;4.948;2023-03-01T07:36:01;5.90;;;4.00;;
59872;SDS011;50750;51.636;4.948;2023-03-01T07:38:29;5.50;;;4.10;;
59872;SDS011;50750;51.636;4.948;2023-03-01T07:41:00;6.20;;;4.50;;
59872;SDS011;50750;51.636;4.948;2023-03-01T07:43:28;6.80;;;4.30;;
59872;SDS011;50750;51.636;4.948;2023-03-01T07:45:59;5.50;;;4.10;;
59872;SDS011;50750;51.636;4.948;2023-03-01T07:48:27;7.00;;;4.20;;
59872;SDS011;50750;51.636;4.948;2023-03-01T07:50:57;5.80;;;4.00;;
59872;SDS011;50750;51.636;4.948;2023-03-01T07:53:24;5.50;;;4.00;;
59872;SDS011;50750;51.636;4.948;2023-03-01T07:56:07;9.00;;;4.00;;
59872;SDS011;50750;51.636;4.948;2023-03-01T07:58:37;5.40;;;3.80;;
59872;SDS011;50750;51.636;4.948;2023-03-01T08:01:07;5.40;;;4.00;;
59872;SDS011;50750;51.636;4.948;2023-03-01T08:03:35;6.40;;;3.90;;
59872;SDS011;50750;51.636;4.948;2023-03-01T08:06:03;5.40;;;3.90;;
59872;SDS011;50750;51.636;4.948;2023-03-01T08:08:32;5.70;;;3.90;;
59872;SDS011;50750;51.636;4.948;2023-03-01T08:10:59;5.50;;;3.70;;
59872;SDS011;50750;51.636;4.948;2023-03-01T08:13:27;5.40;;;3.60;;
59872;SDS011;50750;51.636;4.948;2023-03-01T08:16:06;5.20;;;3.80;;
59872;SDS011;50750;51.636;4.948;2023-03-01T08:18:34;5.30;;;3.60;;
59872;SDS011;50750;51.636;4.948;2023-03-01T08:21:04;5.60;;;3.60;;
59872;SDS011;50750;51.636;4.948;2023-03-01T08:23:33;5.60;;;3.60;;
59872;SDS011;50750;51.636;4.948;2023-03-01T08:26:04;6.10;;;4.10;;
59872;SDS011;50750;51.636;4.948;2023-03-01T08:28:32;6.60;;;3.40;;
59872;SDS011;50750;51.636;4.948;2023-03-01T08:30:58;5.30;;;3.60;;
59872;SDS011;50750;51.636;4.948;2023-03-01T08:33:25;4.50;;;3.20;;
59872;SDS011;50750;51.636;4.948;2023-03-01T08:35:52;4.40;;;3.20;;
59872;SDS011;50750;51.636;4.948;2023-03-01T08:38:18;4.70;;;3.50;;
59872;SDS011;50750;51.636;4.948;2023-03-01T08:40:45;5.10;;;3.50;;
59872;SDS011;50750;51.636;4.948;2023-03-01T08:43:11;4.30;;;3.30;;
59872;SDS011;50750;51.636;4.948;2023-03-01T08:45:38;4.40;;;3.40;;
59872;SDS011;50750;51.636;4.948;2023-03-01T08:48:04;4.40;;;3.10;;
59872;SDS011;50750;51.636;4.948;2023-03-01T08:50:31;6.00;;;3.40;;
59872;SDS011;50750;51.636;4.948;2023-03-01T08:52:57;4.40;;;2.90;;
59872;SDS011;50750;51.636;4.948;2023-03-01T08:55:24;5.20;;;3.50;;
59872;SDS011;50750;51.636;4.948;2023-03-01T08:57:50;4.90;;;3.30;;
59872;SDS011;50750;51.636;4.948;2023-03-01T09:00:17;4.20;;;3.20;;
59872;SDS011;50750;51.636;4.948;2023-03-01T09:02:44;4.50;;;3.00;;
59872;SDS011;50750;51.636;4.948;2023-03-01T09:05:10;5.60;;;3.50;;
59872;SDS011;50750;51.636;4.948;2023-03-01T09:07:37;4.50;;;3.30;;
59872;SDS011;50750;51.636;4.948;2023-03-01T09:10:03;4.60;;;3.40;;
59872;SDS011;50750;51.636;4.948;2023-03-01T09:12:31;4.60;;;3.10;;
59872;SDS011;50750;51.636;4.948;2023-03-01T09:14:57;4.50;;;3.30;;
59872;SDS011;50750;51.636;4.948;2023-03-01T09:17:24;4.50;;;3.00;;
59872;SDS011;50750;51.636;4.948;2023-03-01T09:19:50;4.50;;;2.70;;
59872;SDS011;50750;51.636;4.948;2023-03-01T09:22:17;5.40;;;3.10;;
59872;SDS011;50750;51.636;4.948;2023-03-01T09:24:43;5.40;;;3.10;;
59872;SDS011;50750;51.636;4.948;2023-03-01T09:27:10;4.50;;;2.90;;
59872;SDS011;50750;51.636;4.948;2023-03-01T09:29:39;5.20;;;3.20;;
59872;SDS011;50750;51.636;4.948;2023-03-01T09:32:06;4.40;;;3.00;;
59872;SDS011;50750;51.636;4.948;2023-03-01T09:34:34;4.30;;;2.90;;
59872;SDS011;50750;51.636;4.948;2023-03-01T09:37:20;5.00;;;2.80;;
59872;SDS011;50750;51.636;4.948;2023-03-01T09:39:47;4.50;;;3.20;;
59872;SDS011;50750;51.636;4.948;2023-03-01T09:42:14;4.90;;;2.60;;
59872;SDS011;50750;51.636;4.948;2023-03-01T09:47:18;4.80;;;2.50;;
59872;SDS011;50750;51.636;4.948;2023-03-01T09:49:57;3.90;;;2.50;;
59872;SDS011;50750;51.636;4.948;2023-03-01T09:52:33;5.30;;;2.90;;
59872;SDS011;50750;51.636;4.948;2023-03-01T09:55:12;4.20;;;2.80;;
59872;SDS011;50750;51.636;4.948;2023-03-01T09:57:49;5.70;;;3.50;;
59872;SDS011;50750;51.636;4.948;2023-03-01T10:00:23;4.30;;;3.30;;
59872;SDS011;50750;51.636;4.948;2023-03-01T10:02:56;4.80;;;2.80;;
59872;SDS011;50750;51.636;4.948;2023-03-01T10:11:05;4.10;;;2.60;;
59872;SDS011;50750;51.636;4.948;2023-03-01T10:19:27;4.50;;;2.90;;
59872;SDS011;50750;51.636;4.948;2023-03-01T10:22:02;5.20;;;2.80;;
59872;SDS011;50750;51.636;4.948;2023-03-01T10:24:49;6.30;;;3.60;;
59872;SDS011;50750;51.636;4.948;2023-03-01T10:27:22;5.70;;;3.60;;
59872;SDS011;50750;51.636;4.948;2023-03-01T10:32:55;5.30;;;3.00;;
59872;SDS011;50750;51.636;4.948;2023-03-01T10:35:25;5.90;;;3.70;;
59872;SDS011;50750;51.636;4.948;2023-03-01T10:40:29;4.50;;;3.30;;
59872;SDS011;50750;51.636;4.948;2023-03-01T10:42:57;6.30;;;3.40;;
59872;SDS011;50750;51.636;4.948;2023-03-01T10:45:30;6.20;;;3.30;;
59872;SDS011;50750;51.636;4.948;2023-03-01T10:48:06;6.70;;;3.70;;
59872;SDS011;50750;51.636;4.948;2023-03-01T10:51:12;4.70;;;3.40;;
59872;SDS011;50750;51.636;4.948;2023-03-01T10:53:42;4.90;;;3.20;;
59872;SDS011;50750;51.636;4.948;2023-03-01T10:56:16;5.80;;;3.60;;
59872;SDS011;50750;51.636;4.948;2023-03-01T10:59:00;4.90;;;3.50;;
59872;SDS011;50750;51.636;4.948;2023-03-01T11:01:29;4.50;;;3.00;;
59872;SDS011;50750;51.636;4.948;2023-03-01T11:06:34;4.90;;;3.20;;
59872;SDS011;50750;51.636;4.948;2023-03-01T11:09:22;7.30;;;4.70;;
59872;SDS011;50750;51.636;4.948;2023-03-01T11:11:53;7.60;;;4.90;;
59872;SDS011;50750;51.636;4.948;2023-03-01T11:14:22;9.60;;;4.70;;
59872;SDS011;50750;51.636;4.948;2023-03-01T11:16:58;8.10;;;4.50;;
59872;SDS011;50750;51.636;4.948;2023-03-01T11:19:30;14.30;;;4.50;;
59872;SDS011;50750;51.636;4.948;2023-03-01T11:22:02;9.40;;;4.90;;
59872;SDS011;50750;51.636;4.948;2023-03-01T11:24:43;7.90;;;4.60;;
59872;SDS011;50750;51.636;4.948;2023-03-01T11:32:40;7.20;;;3.70;;
59872;SDS011;50750;51.636;4.948;2023-03-01T11:35:29;8.10;;;4.40;;
59872;SDS011;50750;51.636;4.948;2023-03-01T11:38:02;6.60;;;3.70;;
59872;SDS011;50750;51.636;4.948;2023-03-01T11:40:43;6.50;;;3.70;;
59872;SDS011;50750;51.636;4.948;2023-03-01T11:43:23;6.20;;;4.00;;
59872;SDS011;50750;51.636;4.948;2023-03-01T11:51:13;5.10;;;3.40;;
59872;SDS011;50750;51.636;4.948;2023-03-01T11:53:57;5.40;;;3.30;;
59872;SDS011;50750;51.636;4.948;2023-03-01T11:56:43;6.00;;;3.40;;
59872;SDS011;50750;51.636;4.948;2023-03-01T12:02:00;6.80;;;3.70;;
59872;SDS011;50750;51.636;4.948;2023-03-01T12:13:22;4.70;;;3.00;;
59872;SDS011;50750;51.636;4.948;2023-03-01T12:16:07;5.10;;;3.10;;
59872;SDS011;50750;51.636;4.948;2023-03-01T12:21:12;4.30;;;2.80;;
59872;SDS011;50750;51.636;4.948;2023-03-01T12:26:32;3.90;;;2.90;;
59872;SDS011;50750;51.636;4.948;2023-03-01T12:31:47;4.80;;;2.80;;
59872;SDS011;50750;51.636;4.948;2023-03-01T12:46:10;5.20;;;2.70;;
59872;SDS011;50750;51.636;4.948;2023-03-01T12:48:55;5.00;;;3.10;;
59872;SDS011;50750;51.636;4.948;2023-03-01T12:51:32;4.30;;;2.90;;
59872;SDS011;50750;51.636;4.948;2023-03-01T12:54:05;4.70;;;3.10;;
59872;SDS011;50750;51.636;4.948;2023-03-01T12:56:40;5.70;;;3.20;;
59872;SDS011;50750;51.636;4.948;2023-03-01T13:04:31;5.40;;;2.90;;
59872;SDS011;50750;51.636;4.948;2023-03-01T13:13:29;4.50;;;3.10;;
59872;SDS011;50750;51.636;4.948;2023-03-01T13:15:47;5.00;;;3.10;;
59872;SDS011;50750;51.636;4.948;2023-03-01T13:31:56;4.80;;;2.90;;
59872;SDS011;50750;51.636;4.948;2023-03-01T13:46:50;4.40;;;2.70;;
59872;SDS011;50750;51.636;4.948;2023-03-01T13:49:22;4.40;;;2.70;;
59872;SDS011;50750;51.636;4.948;2023-03-01T13:51:53;4.80;;;2.60;;
59872;SDS011;50750;51.636;4.948;2023-03-01T13:54:27;5.10;;;2.70;;
59872;SDS011;50750;51.636;4.948;2023-03-01T13:56:57;5.70;;;3.00;;
59872;SDS011;50750;51.636;4.948;2023-03-01T13:59:26;4.60;;;2.90;;
59872;SDS011;50750;51.636;4.948;2023-03-01T14:01:54;6.00;;;3.30;;
59872;SDS011;50750;51.636;4.948;2023-03-01T14:04:32;4.20;;;2.70;;
59872;SDS011;50750;51.636;4.948;2023-03-01T14:07:18;6.30;;;2.90;;
59872;SDS011;50750;51.636;4.948;2023-03-01T14:09:48;4.10;;;2.60;;
59872;SDS011;50750;51.636;4.948;2023-03-01T14:20:45;4.00;;;2.50;;
59872;SDS011;50750;51.636;4.948;2023-03-01T14:23:18;4.10;;;2.60;;
59872;SDS011;50750;51.636;4.948;2023-03-01T14:25:55;4.30;;;2.80;;
59872;SDS011;50750;51.636;4.948;2023-03-01T14:28:27;4.10;;;2.40;;
59872;SDS011;50750;51.636;4.948;2023-03-01T14:30:57;4.10;;;2.70;;
59872;SDS011;50750;51.636;4.948;2023-03-01T14:33:35;6.00;;;2.60;;
59872;SDS011;50750;51.636;4.948;2023-03-01T14:36:06;4.20;;;2.70;;
59872;SDS011;50750;51.636;4.948;2023-03-01T14:38:45;4.90;;;2.90;;
59872;SDS011;50750;51.636;4.948;2023-03-01T14:41:20;4.10;;;2.40;;
59872;SDS011;50750;51.636;4.948;2023-03-01T14:43:50;5.10;;;2.70;;
59872;SDS011;50750;51.636;4.948;2023-03-01T14:46:18;3.90;;;2.60;;
59872;SDS011;50750;51.636;4.948;2023-03-01T14:48:48;4.70;;;2.80;;
59872;SDS011;50750;51.636;4.948;2023-03-01T14:51:19;4.40;;;2.60;;
59872;SDS011;50750;51.636;4.948;2023-03-01T14:53:46;3.70;;;2.40;;
59872;SDS011;50750;51.636;4.948;2023-03-01T14:56:13;4.10;;;2.60;;
59872;SDS011;50750;51.636;4.948;2023-03-01T14:58:41;4.00;;;2.40;;
59872;SDS011;50750;51.636;4.948;2023-03-01T15:01:10;4.20;;;2.30;;
59872;SDS011;50750;51.636;4.948;2023-03-01T15:03:47;4.20;;;2.40;;
59872;SDS011;50750;51.636;4.948;2023-03-01T15:06:19;4.10;;;2.50;;
59872;SDS011;50750;51.636;4.948;2023-03-01T15:08:49;4.00;;;2.50;;
59872;SDS011;50750;51.636;4.948;2023-03-01T15:13:51;3.20;;;2.10;;
59872;SDS011;50750;51.636;4.948;2023-03-01T15:16:20;3.50;;;2.20;;
59872;SDS011;50750;51.636;4.948;2023-03-01T15:19:03;4.40;;;2.30;;
59872;SDS011;50750;51.636;4.948;2023-03-01T15:27:12;3.50;;;2.20;;
59872;SDS011;50750;51.636;4.948;2023-03-01T15:29:40;3.80;;;2.60;;
59872;SDS011;50750;51.636;4.948;2023-03-01T15:34:59;4.10;;;2.20;;
59872;SDS011;50750;51.636;4.948;2023-03-01T15:38:01;3.80;;;2.60;;
59872;SDS011;50750;51.636;4.948;2023-03-01T15:40:27;4.00;;;2.60;;
59872;SDS011;50750;51.636;4.948;2023-03-01T15:43:01;3.50;;;2.30;;
59872;SDS011;50750;51.636;4.948;2023-03-01T15:45:30;4.10;;;2.60;;
59872;SDS011;50750;51.636;4.948;2023-03-01T15:48:04;3.30;;;2.10;;
59872;SDS011;50750;51.636;4.948;2023-03-01T15:50:40;4.00;;;2.50;;
59872;SDS011;50750;51.636;4.948;2023-03-01T15:53:10;4.00;;;2.30;;
59872;SDS011;50750;51.636;4.948;2023-03-01T15:55:40;3.60;;;2.30;;
59872;SDS011;50750;51.636;4.948;2023-03-01T15:58:15;3.30;;;2.20;;
59872;SDS011;50750;51.636;4.948;2023-03-01T16:00:51;4.30;;;2.30;;
59872;SDS011;50750;51.636;4.948;2023-03-01T16:03:22;3.10;;;2.20;;
59872;SDS011;50750;51.636;4.948;2023-03-01T16:05:49;4.50;;;2.50;;
59872;SDS011;50750;51.636;4.948;2023-03-01T16:08:17;4.20;;;2.40;;
59872;SDS011;50750;51.636;4.948;2023-03-01T16:10:45;3.70;;;2.40;;
59872;SDS011;50750;51.636;4.948;2023-03-01T16:13:12;4.70;;;2.50;;
59872;SDS011;50750;51.636;4.948;2023-03-01T16:15:39;4.00;;;2.70;;
59872;SDS011;50750;51.636;4.948;2023-03-01T16:18:06;4.40;;;2.50;;
59872;SDS011;50750;51.636;4.948;2023-03-01T16:20:36;3.80;;;2.30;;
59872;SDS011;50750;51.636;4.948;2023-03-01T16:23:03;4.50;;;2.40;;
59872;SDS011;50750;51.636;4.948;2023-03-01T16:25:32;4.80;;;2.40;;
59872;SDS011;50750;51.636;4.948;2023-03-01T16:27:59;3.40;;;2.20;;
59872;SDS011;50750;51.636;4.948;2023-03-01T16:30:30;5.10;;;2.30;;
59872;SDS011;50750;51.636;4.948;2023-03-01T16:32:57;4.50;;;2.50;;
59872;SDS011;50750;51.636;4.948;2023-03-01T16:35:24;4.20;;;2.40;;
59872;SDS011;50750;51.636;4.948;2023-03-01T16:37:51;4.40;;;2.50;;
59872;SDS011;50750;51.636;4.948;2023-03-01T16:40:24;4.90;;;2.30;;
59872;SDS011;50750;51.636;4.948;2023-03-01T16:42:53;5.10;;;2.60;;
59872;SDS011;50750;51.636;4.948;2023-03-01T16:45:26;4.50;;;2.30;;
59872;SDS011;50750;51.636;4.948;2023-03-01T16:47:58;5.00;;;2.40;;
59872;SDS011;50750;51.636;4.948;2023-03-01T16:50:24;4.70;;;2.80;;
59872;SDS011;50750;51.636;4.948;2023-03-01T16:52:51;4.50;;;2.60;;
59872;SDS011;50750;51.636;4.948;2023-03-01T16:55:18;3.40;;;2.20;;
59872;SDS011;50750;51.636;4.948;2023-03-01T16:57:44;5.40;;;2.60;;
59872;SDS011;50750;51.636;4.948;2023-03-01T17:00:11;4.40;;;2.80;;
59872;SDS011;50750;51.636;4.948;2023-03-01T17:02:39;3.90;;;2.30;;
59872;SDS011;50750;51.636;4.948;2023-03-01T17:05:07;3.90;;;2.40;;
59872;SDS011;50750;51.636;4.948;2023-03-01T17:07:36;3.70;;;2.50;;
59872;SDS011;50750;51.636;4.948;2023-03-01T17:10:04;3.30;;;2.20;;
59872;SDS011;50750;51.636;4.948;2023-03-01T17:12:34;3.80;;;2.50;;
59872;SDS011;50750;51.636;4.948;2023-03-01T17:15:01;3.90;;;2.20;;
59872;SDS011;50750;51.636;4.948;2023-03-01T17:17:29;4.70;;;2.50;;
59872;SDS011;50750;51.636;4.948;2023-03-01T17:19:56;4.00;;;2.20;;
59872;SDS011;50750;51.636;4.948;2023-03-01T17:22:23;4.20;;;2.50;;
59872;SDS011;50750;51.636;4.948;2023-03-01T17:24:50;4.10;;;2.40;;
59872;SDS011;50750;51.636;4.948;2023-03-01T17:27:16;3.80;;;2.40;;
59872;SDS011;50750;51.636;4.948;2023-03-01T17:29:43;4.60;;;2.60;;